sensor_id;sensor_type;location;lat;lon;timestamp;temperature;humidity
20035;DHT22;10178;48.034;9.800;2023-04-06T00:01:35;5.00;99.90
20035;DHT22;10178;48.034;9.800;2023-04-06T00:04:01;5.00;99.90
20035;DHT22;10178;48.034;9.800;2023-04-06T00:06:26;5.00;99.90
20035;DHT22;10178;48.034;9.800;2023-04-06T00:08:52;5.00;99.90
20035;DHT22;10178;48.034;9.800;2023-04-06T00:11:18;5.00;99.90
20035;DHT22;10178;48.034;9.800;2023-04-06T00:13:44;4.90;99.90
20035;DHT22;10178;48.034;9.800;2023-04-06T00:16:10;4.90;99.90
20035;DHT22;10178;48.034;9.800;2023-04-06T00:18:36;4.90;99.90
20035;DHT22;10178;48.034;9.800;2023-04-06T00:21:02;4.90;99.90
20035;DHT22;10178;48.034;9.800;2023-04-06T00:23:28;4.90;99.90
20035;DHT22;10178;48.034;9.800;2023-04-06T00:25:53;4.90;99.90
20035;DHT22;10178;48.034;9.800;2023-04-06T00:28:19;4.80;99.90
20035;DHT22;10178;48.034;9.800;2023-04-06T00:30:50;4.80;99.90
20035;DHT22;10178;48.034;9.800;2023-04-06T00:33:18;4.80;99.90
20035;DHT22;10178;48.034;9.800;2023-04-06T00:35:44;4.80;99.90
20035;DHT22;10178;48.034;9.800;2023-04-06T00:38:09;4.80;99.90
20035;DHT22;10178;48.034;9.800;2023-04-06T00:40:35;4.80;99.90
20035;DHT22;10178;48.034;9.800;2023-04-06T00:43:01;4.80;99.90
20035;DHT22;10178;48.034;9.800;2023-04-06T00:45:27;4.80;99.90
20035;DHT22;10178;48.034;9.800;2023-04-06T00:47:52;4.80;99.90
20035;DHT22;10178;48.034;9.800;2023-04-06T00:50:18;4.80;99.90
20035;DHT22;10178;48.034;9.800;2023-04-06T00:52:44;4.80;99.90
20035;DHT22;10178;48.034;9.800;2023-04-06T00:55:09;4.80;99.90
20035;DHT22;10178;48.034;9.800;2023-04-06T00:57:35;3.80;99.90
20035;DHT22;10178;48.034;9.800;2023-04-06T01:00:02;3.90;99.90
20035;DHT22;10178;48.034;9.800;2023-04-06T01:02:28;3.20;99.90
20035;DHT22;10178;48.034;9.800;2023-04-06T01:04:54;2.00;99.90
20035;DHT22;10178;48.034;9.800;2023-04-06T01:07:20;2.30;99.90
20035;DHT22;10178;48.034;9.800;2023-04-06T01:09:47;3.00;99.90
20035;DHT22;10178;48.034;9.800;2023-04-06T01:12:13;3.60;99.90
20035;DHT22;10178;48.034;9.800;2023-04-06T01:14:40;4.00;99.90
20035;DHT22;10178;48.034;9.800;2023-04-06T01:17:06;4.20;99.90
20035;DHT22;10178;48.034;9.800;2023-04-06T01:19:33;4.30;99.90
20035;DHT22;10178;48.034;9.800;2023-04-06T01:21:59;4.40;99.90
20035;DHT22;10178;48.034;9.800;2023-04-06T01:24:25;4.40;99.90
20035;DHT22;10178;48.034;9.800;2023-04-06T01:26:51;4.40;99.90
20035;DHT22;10178;48.034;9.800;2023-04-06T01:29:16;4.40;99.90
20035;DHT22;10178;48.034;9.800;2023-04-06T01:31:42;4.50;99.90
20035;DHT22;10178;48.034;9.800;2023-04-06T01:34:08;4.50;99.90
20035;DHT22;10178;48.034;9.800;2023-04-06T01:36:34;4.50;99.90
20035;DHT22;10178;48.034;9.800;2023-04-06T01:38:59;4.50;99.90
20035;DHT22;10178;48.034;9.800;2023-04-06T01:41:25;4.40;99.90
20035;DHT22;10178;48.034;9.800;2023-04-06T01:43:51;4.40;99.90
20035;DHT22;10178;48.034;9.800;2023-04-06T01:46:22;4.40;99.90
20035;DHT22;10178;48.034;9.800;2023-04-06T01:49:09;4.40;99.90
20035;DHT22;10178;48.034;9.800;2023-04-06T01:51:34;4.40;99.90
20035;DHT22;10178;48.034;9.800;2023-04-06T01:54:00;4.40;99.90
20035;DHT22;10178;48.034;9.800;2023-04-06T01:56:26;4.30;99.90
20035;DHT22;10178;48.034;9.800;2023-04-06T01:58:52;4.30;99.90
20035;DHT22;10178;48.034;9.800;2023-04-06T02:01:18;4.30;99.90
20035;DHT22;10178;48.034;9.800;2023-04-06T02:03:43;4.30;99.90
20035;DHT22;10178;48.034;9.800;2023-04-06T02:06:09;4.30;99.90
20035;DHT22;10178;48.034;9.800;2023-04-06T02:08:35;4.30;99.90
20035;DHT22;10178;48.034;9.800;2023-04-06T02:11:01;4.30;99.90
20035;DHT22;10178;48.034;9.800;2023-04-06T02:13:26;4.30;99.90
20035;DHT22;10178;48.034;9.800;2023-04-06T02:15:52;4.20;99.90
20035;DHT22;10178;48.034;9.800;2023-04-06T02:18:18;4.20;99.90
20035;DHT22;10178;48.034;9.800;2023-04-06T02:20:44;4.20;99.90
20035;DHT22;10178;48.034;9.800;2023-04-06T02:23:10;3.80;99.90
20035;DHT22;10178;48.034;9.800;2023-04-06T02:25:35;3.50;99.90
20035;DHT22;10178;48.034;9.800;2023-04-06T02:28:01;2.90;99.90
20035;DHT22;10178;48.034;9.800;2023-04-06T02:30:27;3.00;99.90
20035;DHT22;10178;48.034;9.800;2023-04-06T02:32:54;3.10;99.90
20035;DHT22;10178;48.034;9.800;2023-04-06T02:35:20;3.30;99.90
20035;DHT22;10178;48.034;9.800;2023-04-06T02:37:45;3.60;99.90
20035;DHT22;10178;48.034;9.800;2023-04-06T02:40:11;3.80;99.90
20035;DHT22;10178;48.034;9.800;2023-04-06T02:42:37;4.00;99.90
20035;DHT22;10178;48.034;9.800;2023-04-06T02:45:02;4.00;99.90
20035;DHT22;10178;48.034;9.800;2023-04-06T02:47:28;4.00;99.90
20035;DHT22;10178;48.034;9.800;2023-04-06T02:49:54;4.00;99.90
20035;DHT22;10178;48.034;9.800;2023-04-06T02:52:19;4.00;99.90
20035;DHT22;10178;48.034;9.800;2023-04-06T02:54:45;4.10;99.90
20035;DHT22;10178;48.034;9.800;2023-04-06T02:57:11;4.00;99.90
20035;DHT22;10178;48.034;9.800;2023-04-06T02:59:36;4.00;99.90
20035;DHT22;10178;48.034;9.800;2023-04-06T03:02:02;3.90;99.90
20035;DHT22;10178;48.034;9.800;2023-04-06T03:04:27;3.90;99.90
20035;DHT22;10178;48.034;9.800;2023-04-06T03:06:54;4.00;99.90
20035;DHT22;10178;48.034;9.800;2023-04-06T03:09:20;3.90;99.90
20035;DHT22;10178;48.034;9.800;2023-04-06T03:11:46;3.90;99.90
20035;DHT22;10178;48.034;9.800;2023-04-06T03:14:12;3.90;99.90
20035;DHT22;10178;48.034;9.800;2023-04-06T03:16:37;3.90;99.90
20035;DHT22;10178;48.034;9.800;2023-04-06T03:19:03;4.00;99.90
20035;DHT22;10178;48.034;9.800;2023-04-06T03:21:29;3.90;99.90
20035;DHT22;10178;48.034;9.800;2023-04-06T03:23:54;3.90;99.90
20035;DHT22;10178;48.034;9.800;2023-04-06T03:26:20;3.90;99.90
20035;DHT22;10178;48.034;9.800;2023-04-06T03:28:47;3.90;99.90
20035;DHT22;10178;48.034;9.800;2023-04-06T03:31:13;3.90;99.90
20035;DHT22;10178;48.034;9.800;2023-04-06T03:33:38;3.90;99.90
20035;DHT22;10178;48.034;9.800;2023-04-06T03:36:04;3.80;99.90
20035;DHT22;10178;48.034;9.800;2023-04-06T03:38:30;3.80;99.90
20035;DHT22;10178;48.034;9.800;2023-04-06T03:40:56;3.80;99.90
20035;DHT22;10178;48.034;9.800;2023-04-06T03:43:22;3.80;99.90
20035;DHT22;10178;48.034;9.800;2023-04-06T03:45:47;3.80;99.90
20035;DHT22;10178;48.034;9.800;2023-04-06T03:48:13;3.80;99.90
20035;DHT22;10178;48.034;9.800;2023-04-06T03:50:38;3.70;99.90
20035;DHT22;10178;48.034;9.800;2023-04-06T03:53:04;3.80;99.90
20035;DHT22;10178;48.034;9.800;2023-04-06T03:55:30;3.70;99.90
20035;DHT22;10178;48.034;9.800;2023-04-06T03:57:55;3.70;99.90
20035;DHT22;10178;48.034;9.800;2023-04-06T04:00:22;3.70;99.90
20035;DHT22;10178;48.034;9.800;2023-04-06T04:02:49;3.70;99.90
20035;DHT22;10178;48.034;9.800;2023-04-06T04:05:14;3.40;99.90
20035;DHT22;10178;48.034;9.800;2023-04-06T04:07:40;3.30;99.90
20035;DHT22;10178;48.034;9.800;2023-04-06T04:10:06;3.30;99.90
20035;DHT22;10178;48.034;9.800;2023-04-06T04:12:32;3.30;99.90
20035;DHT22;10178;48.034;9.800;2023-04-06T04:14:57;3.40;99.90
20035;DHT22;10178;48.034;9.800;2023-04-06T04:17:24;3.40;99.90
20035;DHT22;10178;48.034;9.800;2023-04-06T04:19:50;3.40;99.90
20035;DHT22;10178;48.034;9.800;2023-04-06T04:22:16;3.50;99.90
20035;DHT22;10178;48.034;9.800;2023-04-06T04:24:41;3.50;99.90
20035;DHT22;10178;48.034;9.800;2023-04-06T04:27:07;3.50;99.90
20035;DHT22;10178;48.034;9.800;2023-04-06T04:29:32;3.50;99.90
20035;DHT22;10178;48.034;9.800;2023-04-06T04:31:58;3.50;99.90
20035;DHT22;10178;48.034;9.800;2023-04-06T04:34:24;3.50;99.90
20035;DHT22;10178;48.034;9.800;2023-04-06T04:36:51;3.50;99.90
20035;DHT22;10178;48.034;9.800;2023-04-06T04:39:16;3.40;99.90
20035;DHT22;10178;48.034;9.800;2023-04-06T04:41:42;3.40;99.90
20035;DHT22;10178;48.034;9.800;2023-04-06T04:44:08;3.40;99.90
20035;DHT22;10178;48.034;9.800;2023-04-06T04:46:33;3.40;99.90
20035;DHT22;10178;48.034;9.800;2023-04-06T04:48:59;3.40;99.90
20035;DHT22;10178;48.034;9.800;2023-04-06T04:51:25;3.40;99.90
20035;DHT22;10178;48.034;9.800;2023-04-06T04:53:51;3.40;99.90
20035;DHT22;10178;48.034;9.800;2023-04-06T04:56:16;3.40;99.90
20035;DHT22;10178;48.034;9.800;2023-04-06T04:58:42;3.40;99.90
20035;DHT22;10178;48.034;9.800;2023-04-06T05:01:08;3.40;99.90
20035;DHT22;10178;48.034;9.800;2023-04-06T05:03:34;3.40;99.90
20035;DHT22;10178;48.034;9.800;2023-04-06T05:06:01;3.40;99.90
20035;DHT22;10178;48.034;9.800;2023-04-06T05:08:26;3.40;99.90
20035;DHT22;10178;48.034;9.800;2023-04-06T05:10:52;3.40;99.90
20035;DHT22;10178;48.034;9.800;2023-04-06T05:13:18;3.40;99.90
20035;DHT22;10178;48.034;9.800;2023-04-06T05:15:43;3.40;99.90
20035;DHT22;10178;48.034;9.800;2023-04-06T05:18:10;3.40;99.90
20035;DHT22;10178;48.034;9.800;2023-04-06T05:20:37;3.40;99.90
20035;DHT22;10178;48.034;9.800;2023-04-06T05:23:03;3.40;99.90
20035;DHT22;10178;48.034;9.800;2023-04-06T05:25:29;3.40;99.90
20035;DHT22;10178;48.034;9.800;2023-04-06T05:27:55;3.40;99.90
20035;DHT22;10178;48.034;9.800;2023-04-06T05:30:20;3.40;99.90
20035;DHT22;10178;48.034;9.800;2023-04-06T05:32:46;3.40;99.90
20035;DHT22;10178;48.034;9.800;2023-04-06T05:35:12;3.40;99.90
20035;DHT22;10178;48.034;9.800;2023-04-06T05:37:39;3.10;99.90
20035;DHT22;10178;48.034;9.800;2023-04-06T05:40:05;2.90;99.90
20035;DHT22;10178;48.034;9.800;2023-04-06T05:42:38;2.80;99.90
20035;DHT22;10178;48.034;9.800;2023-04-06T05:45:05;2.80;99.90
20035;DHT22;10178;48.034;9.800;2023-04-06T05:47:31;2.90;99.90
20035;DHT22;10178;48.034;9.800;2023-04-06T05:49:57;2.90;99.90
20035;DHT22;10178;48.034;9.800;2023-04-06T05:52:22;3.00;99.90
20035;DHT22;10178;48.034;9.800;2023-04-06T05:54:48;3.00;99.90
20035;DHT22;10178;48.034;9.800;2023-04-06T05:57:14;3.10;99.90
20035;DHT22;10178;48.034;9.800;2023-04-06T05:59:40;3.10;99.90
20035;DHT22;10178;48.034;9.800;2023-04-06T06:02:05;3.10;99.90
20035;DHT22;10178;48.034;9.800;2023-04-06T06:04:31;3.20;99.90
20035;DHT22;10178;48.034;9.800;2023-04-06T06:06:57;3.10;99.90
20035;DHT22;10178;48.034;9.800;2023-04-06T06:09:22;3.20;99.90
20035;DHT22;10178;48.034;9.800;2023-04-06T06:11:49;3.20;99.90
20035;DHT22;10178;48.034;9.800;2023-04-06T06:14:14;3.20;99.90
20035;DHT22;10178;48.034;9.800;2023-04-06T06:16:40;3.20;99.90
20035;DHT22;10178;48.034;9.800;2023-04-06T06:19:06;3.20;99.90
20035;DHT22;10178;48.034;9.800;2023-04-06T06:21:32;3.20;99.90
20035;DHT22;10178;48.034;9.800;2023-04-06T06:23:57;3.20;99.90
20035;DHT22;10178;48.034;9.800;2023-04-06T06:26:23;3.30;99.90
20035;DHT22;10178;48.034;9.800;2023-04-06T06:28:49;3.30;99.90
20035;DHT22;10178;48.034;9.800;2023-04-06T06:31:14;3.30;99.90
20035;DHT22;10178;48.034;9.800;2023-04-06T06:33:40;3.30;99.90
20035;DHT22;10178;48.034;9.800;2023-04-06T06:36:06;3.30;99.90
20035;DHT22;10178;48.034;9.800;2023-04-06T06:38:31;3.40;99.90
20035;DHT22;10178;48.034;9.800;2023-04-06T06:40:57;3.40;99.90
20035;DHT22;10178;48.034;9.800;2023-04-06T06:43:23;3.40;99.90
20035;DHT22;10178;48.034;9.800;2023-04-06T06:45:49;3.50;99.90
20035;DHT22;10178;48.034;9.800;2023-04-06T06:48:15;3.50;99.90
20035;DHT22;10178;48.034;9.800;2023-04-06T06:50:41;3.70;99.90
20035;DHT22;10178;48.034;9.800;2023-04-06T06:53:06;3.80;99.90
20035;DHT22;10178;48.034;9.800;2023-04-06T06:55:32;3.90;99.90
20035;DHT22;10178;48.034;9.800;2023-04-06T06:57:58;4.00;99.90
20035;DHT22;10178;48.034;9.800;2023-04-06T07:00:23;4.30;99.90
20035;DHT22;10178;48.034;9.800;2023-04-06T07:02:49;4.50;99.90
20035;DHT22;10178;48.034;9.800;2023-04-06T07:05:16;4.60;99.90
20035;DHT22;10178;48.034;9.800;2023-04-06T07:07:41;4.00;99.90
20035;DHT22;10178;48.034;9.800;2023-04-06T07:10:08;4.30;99.90
20035;DHT22;10178;48.034;9.800;2023-04-06T07:12:34;4.40;99.90
20035;DHT22;10178;48.034;9.800;2023-04-06T07:15:00;4.70;99.90
20035;DHT22;10178;48.034;9.800;2023-04-06T07:17:25;5.00;99.90
20035;DHT22;10178;48.034;9.800;2023-04-06T07:19:51;5.30;99.90
20035;DHT22;10178;48.034;9.800;2023-04-06T07:22:17;5.50;99.90
20035;DHT22;10178;48.034;9.800;2023-04-06T07:24:42;5.70;99.90
20035;DHT22;10178;48.034;9.800;2023-04-06T07:27:08;5.80;99.90
20035;DHT22;10178;48.034;9.800;2023-04-06T07:29:34;5.90;99.90
20035;DHT22;10178;48.034;9.800;2023-04-06T07:31:59;6.10;99.90
20035;DHT22;10178;48.034;9.800;2023-04-06T07:34:25;6.30;99.90
20035;DHT22;10178;48.034;9.800;2023-04-06T07:36:51;6.30;99.90
20035;DHT22;10178;48.034;9.800;2023-04-06T07:39:19;6.10;99.90
20035;DHT22;10178;48.034;9.800;2023-04-06T07:41:44;6.40;99.90
20035;DHT22;10178;48.034;9.800;2023-04-06T07:44:10;6.40;99.90
20035;DHT22;10178;48.034;9.800;2023-04-06T07:46:36;6.40;99.90
20035;DHT22;10178;48.034;9.800;2023-04-06T07:49:01;6.80;99.90
20035;DHT22;10178;48.034;9.800;2023-04-06T07:51:27;7.00;99.90
20035;DHT22;10178;48.034;9.800;2023-04-06T07:53:53;7.20;99.90
20035;DHT22;10178;48.034;9.800;2023-04-06T07:56:19;7.30;99.90
20035;DHT22;10178;48.034;9.800;2023-04-06T07:58:46;7.30;99.90
20035;DHT22;10178;48.034;9.800;2023-04-06T08:01:12;7.50;99.90
20035;DHT22;10178;48.034;9.800;2023-04-06T08:03:37;7.60;99.90
20035;DHT22;10178;48.034;9.800;2023-04-06T08:06:03;7.70;99.90
20035;DHT22;10178;48.034;9.800;2023-04-06T08:08:29;7.80;99.90
20035;DHT22;10178;48.034;9.800;2023-04-06T08:10:54;8.20;99.90
20035;DHT22;10178;48.034;9.800;2023-04-06T08:13:20;8.00;99.90
20035;DHT22;10178;48.034;9.800;2023-04-06T08:15:46;8.10;99.90
20035;DHT22;10178;48.034;9.800;2023-04-06T08:18:12;8.20;99.90
20035;DHT22;10178;48.034;9.800;2023-04-06T08:20:39;8.40;99.90
20035;DHT22;10178;48.034;9.800;2023-04-06T08:23:05;8.20;99.90
20035;DHT22;10178;48.034;9.800;2023-04-06T08:25:33;8.20;99.90
20035;DHT22;10178;48.034;9.800;2023-04-06T08:27:59;8.30;99.90
20035;DHT22;10178;48.034;9.800;2023-04-06T08:30:25;8.50;99.90
20035;DHT22;10178;48.034;9.800;2023-04-06T08:32:50;8.60;99.90
20035;DHT22;10178;48.034;9.800;2023-04-06T08:35:16;8.50;99.90
20035;DHT22;10178;48.034;9.800;2023-04-06T08:37:43;8.60;99.90
20035;DHT22;10178;48.034;9.800;2023-04-06T08:40:09;8.90;99.90
20035;DHT22;10178;48.034;9.800;2023-04-06T08:42:39;9.00;99.90
20035;DHT22;10178;48.034;9.800;2023-04-06T08:45:06;8.90;99.90
20035;DHT22;10178;48.034;9.800;2023-04-06T08:47:34;8.90;99.90
20035;DHT22;10178;48.034;9.800;2023-04-06T08:50:04;9.10;99.90
20035;DHT22;10178;48.034;9.800;2023-04-06T08:52:31;9.30;99.90
20035;DHT22;10178;48.034;9.800;2023-04-06T08:54:57;9.30;99.90
20035;DHT22;10178;48.034;9.800;2023-04-06T08:57:24;9.30;99.90
20035;DHT22;10178;48.034;9.800;2023-04-06T08:59:50;9.10;99.90
20035;DHT22;10178;48.034;9.800;2023-04-06T09:02:18;9.50;99.90
20035;DHT22;10178;48.034;9.800;2023-04-06T09:04:53;9.50;99.90
20035;DHT22;10178;48.034;9.800;2023-04-06T09:07:19;9.90;99.90
20035;DHT22;10178;48.034;9.800;2023-04-06T09:09:45;10.20;99.90
20035;DHT22;10178;48.034;9.800;2023-04-06T09:12:30;10.10;99.90
20035;DHT22;10178;48.034;9.800;2023-04-06T09:14:57;9.90;99.90
20035;DHT22;10178;48.034;9.800;2023-04-06T09:17:24;9.70;99.90
20035;DHT22;10178;48.034;9.800;2023-04-06T09:19:50;9.70;99.90
20035;DHT22;10178;48.034;9.800;2023-04-06T09:22:16;9.50;99.90
20035;DHT22;10178;48.034;9.800;2023-04-06T09:24:45;9.40;99.90
20035;DHT22;10178;48.034;9.800;2023-04-06T09:27:11;9.50;99.90
20035;DHT22;10178;48.034;9.800;2023-04-06T09:29:37;9.30;99.90
20035;DHT22;10178;48.034;9.800;2023-04-06T09:32:06;9.20;99.90
20035;DHT22;10178;48.034;9.800;2023-04-06T09:34:33;9.40;99.90
20035;DHT22;10178;48.034;9.800;2023-04-06T09:36:59;9.80;99.90
20035;DHT22;10178;48.034;9.800;2023-04-06T09:39:25;10.10;99.90
20035;DHT22;10178;48.034;9.800;2023-04-06T09:41:52;10.30;99.90
20035;DHT22;10178;48.034;9.800;2023-04-06T09:44:18;10.70;99.90
20035;DHT22;10178;48.034;9.800;2023-04-06T09:46:45;10.80;99.90
20035;DHT22;10178;48.034;9.800;2023-04-06T09:49:12;10.90;99.90
20035;DHT22;10178;48.034;9.800;2023-04-06T09:51:49;10.60;99.90
20035;DHT22;10178;48.034;9.800;2023-04-06T09:54:22;10.70;99.90
20035;DHT22;10178;48.034;9.800;2023-04-06T10:05:09;10.50;99.90
20035;DHT22;10178;48.034;9.800;2023-04-06T10:07:40;9.60;99.90
20035;DHT22;10178;48.034;9.800;2023-04-06T10:10:07;9.20;99.90
20035;DHT22;10178;48.034;9.800;2023-04-06T10:12:33;9.80;99.90
20035;DHT22;10178;48.034;9.800;2023-04-06T10:14:59;9.90;99.90
20035;DHT22;10178;48.034;9.800;2023-04-06T10:17:25;10.00;99.90
20035;DHT22;10178;48.034;9.800;2023-04-06T10:20:03;10.40;99.90
20035;DHT22;10178;48.034;9.800;2023-04-06T10:23:03;10.60;99.90
20035;DHT22;10178;48.034;9.800;2023-04-06T10:25:31;10.90;99.90
20035;DHT22;10178;48.034;9.800;2023-04-06T10:28:02;10.90;99.90
20035;DHT22;10178;48.034;9.800;2023-04-06T10:30:31;11.00;99.90
20035;DHT22;10178;48.034;9.800;2023-04-06T10:32:57;11.40;99.90
20035;DHT22;10178;48.034;9.800;2023-04-06T10:35:23;10.80;99.90
20035;DHT22;10178;48.034;9.800;2023-04-06T10:38:00;10.90;99.90
20035;DHT22;10178;48.034;9.800;2023-04-06T10:40:27;11.20;99.90
20035;DHT22;10178;48.034;9.800;2023-04-06T10:42:54;11.30;99.90
20035;DHT22;10178;48.034;9.800;2023-04-06T10:45:21;11.20;99.90
20035;DHT22;10178;48.034;9.800;2023-04-06T10:47:47;11.40;99.90
20035;DHT22;10178;48.034;9.800;2023-04-06T10:50:16;11.10;99.90
20035;DHT22;10178;48.034;9.800;2023-04-06T10:52:44;10.90;99.90
20035;DHT22;10178;48.034;9.800;2023-04-06T10:55:15;11.00;99.90
20035;DHT22;10178;48.034;9.800;2023-04-06T10:57:41;11.40;99.90
20035;DHT22;10178;48.034;9.800;2023-04-06T11:00:07;11.40;99.90
20035;DHT22;10178;48.034;9.800;2023-04-06T11:02:34;11.40;99.90
20035;DHT22;10178;48.034;9.800;2023-04-06T11:05:01;11.30;99.90
20035;DHT22;10178;48.034;9.800;2023-04-06T11:07:27;11.20;99.90
20035;DHT22;10178;48.034;9.800;2023-04-06T11:09:55;11.50;99.90
20035;DHT22;10178;48.034;9.800;2023-04-06T11:12:25;11.70;99.90
20035;DHT22;10178;48.034;9.800;2023-04-06T11:14:59;11.70;99.90
20035;DHT22;10178;48.034;9.800;2023-04-06T11:17:30;11.60;99.90
20035;DHT22;10178;48.034;9.800;2023-04-06T11:19:56;11.80;99.90
20035;DHT22;10178;48.034;9.800;2023-04-06T11:22:23;11.40;99.90
20035;DHT22;10178;48.034;9.800;2023-04-06T11:24:49;11.30;99.90
20035;DHT22;10178;48.034;9.800;2023-04-06T11:27:15;11.20;99.90
20035;DHT22;10178;48.034;9.800;2023-04-06T11:29:41;11.30;99.90
20035;DHT22;10178;48.034;9.800;2023-04-06T11:32:07;11.20;99.90
20035;DHT22;10178;48.034;9.800;2023-04-06T11:34:38;11.30;99.90
20035;DHT22;10178;48.034;9.800;2023-04-06T11:37:08;11.20;99.90
20035;DHT22;10178;48.034;9.800;2023-04-06T11:39:47;11.40;99.90
20035;DHT22;10178;48.034;9.800;2023-04-06T11:42:20;11.60;99.90
20035;DHT22;10178;48.034;9.800;2023-04-06T11:44:46;11.70;99.90
20035;DHT22;10178;48.034;9.800;2023-04-06T11:47:12;11.70;99.90
20035;DHT22;10178;48.034;9.800;2023-04-06T11:49:42;11.80;99.90
20035;DHT22;10178;48.034;9.800;2023-04-06T11:52:23;11.90;99.90
20035;DHT22;10178;48.034;9.800;2023-04-06T11:54:51;11.90;99.90
20035;DHT22;10178;48.034;9.800;2023-04-06T11:57:19;11.50;99.90
20035;DHT22;10178;48.034;9.800;2023-04-06T11:59:45;11.00;99.90
20035;DHT22;10178;48.034;9.800;2023-04-06T12:02:11;10.20;99.90
20035;DHT22;10178;48.034;9.800;2023-04-06T12:04:37;9.80;99.90
20035;DHT22;10178;48.034;9.800;2023-04-06T12:07:03;9.70;99.90
20035;DHT22;10178;48.034;9.800;2023-04-06T12:09:30;9.50;99.90
20035;DHT22;10178;48.034;9.800;2023-04-06T12:11:55;9.80;99.90
20035;DHT22;10178;48.034;9.800;2023-04-06T12:14:22;10.20;99.90
20035;DHT22;10178;48.034;9.800;2023-04-06T12:16:48;10.50;99.90
20035;DHT22;10178;48.034;9.800;2023-04-06T12:19:13;10.80;99.90
20035;DHT22;10178;48.034;9.800;2023-04-06T12:21:39;10.80;99.90
20035;DHT22;10178;48.034;9.800;2023-04-06T12:24:06;11.00;99.90
20035;DHT22;10178;48.034;9.800;2023-04-06T12:26:32;11.10;99.90
20035;DHT22;10178;48.034;9.800;2023-04-06T12:29:01;11.40;99.90
20035;DHT22;10178;48.034;9.800;2023-04-06T12:31:32;11.40;99.90
20035;DHT22;10178;48.034;9.800;2023-04-06T12:33:58;11.40;99.90
20035;DHT22;10178;48.034;9.800;2023-04-06T12:36:24;11.30;99.90
20035;DHT22;10178;48.034;9.800;2023-04-06T12:38:50;11.10;99.90
20035;DHT22;10178;48.034;9.800;2023-04-06T12:41:17;10.40;99.90
20035;DHT22;10178;48.034;9.800;2023-04-06T12:43:43;9.80;99.90
20035;DHT22;10178;48.034;9.800;2023-04-06T12:46:09;9.50;99.90
20035;DHT22;10178;48.034;9.800;2023-04-06T12:48:35;9.80;99.90
20035;DHT22;10178;48.034;9.800;2023-04-06T12:51:04;10.00;99.90
20035;DHT22;10178;48.034;9.800;2023-04-06T12:53:30;10.30;99.90
20035;DHT22;10178;48.034;9.800;2023-04-06T12:55:56;10.60;99.90
20035;DHT22;10178;48.034;9.800;2023-04-06T12:58:22;10.30;99.90
20035;DHT22;10178;48.034;9.800;2023-04-06T13:00:49;10.10;99.90
20035;DHT22;10178;48.034;9.800;2023-04-06T13:03:19;10.00;99.90
20035;DHT22;10178;48.034;9.800;2023-04-06T13:05:46;10.10;99.90
20035;DHT22;10178;48.034;9.800;2023-04-06T13:08:13;10.20;99.90
20035;DHT22;10178;48.034;9.800;2023-04-06T13:10:43;10.20;99.90
20035;DHT22;10178;48.034;9.800;2023-04-06T13:13:09;10.20;99.90
20035;DHT22;10178;48.034;9.800;2023-04-06T13:15:35;10.40;99.90
20035;DHT22;10178;48.034;9.800;2023-04-06T13:18:02;10.50;99.90
20035;DHT22;10178;48.034;9.800;2023-04-06T13:20:28;10.60;99.90
20035;DHT22;10178;48.034;9.800;2023-04-06T13:22:54;10.50;99.90
20035;DHT22;10178;48.034;9.800;2023-04-06T13:25:19;10.50;99.90
20035;DHT22;10178;48.034;9.800;2023-04-06T13:27:45;10.50;99.90
20035;DHT22;10178;48.034;9.800;2023-04-06T13:30:13;10.50;99.90
20035;DHT22;10178;48.034;9.800;2023-04-06T13:32:39;10.40;99.90
20035;DHT22;10178;48.034;9.800;2023-04-06T13:35:05;10.10;99.90
20035;DHT22;10178;48.034;9.800;2023-04-06T13:37:31;10.00;99.90
20035;DHT22;10178;48.034;9.800;2023-04-06T13:39:57;9.80;99.90
20035;DHT22;10178;48.034;9.800;2023-04-06T13:42:23;10.30;99.90
20035;DHT22;10178;48.034;9.800;2023-04-06T13:44:48;10.00;99.90
20035;DHT22;10178;48.034;9.800;2023-04-06T13:47:16;9.90;99.90
20035;DHT22;10178;48.034;9.800;2023-04-06T13:49:41;9.90;99.90
20035;DHT22;10178;48.034;9.800;2023-04-06T13:52:07;9.90;99.90
20035;DHT22;10178;48.034;9.800;2023-04-06T13:54:35;9.90;99.90
20035;DHT22;10178;48.034;9.800;2023-04-06T13:57:01;10.10;99.90
20035;DHT22;10178;48.034;9.800;2023-04-06T13:59:32;10.10;99.90
20035;DHT22;10178;48.034;9.800;2023-04-06T14:01:57;10.50;99.90
20035;DHT22;10178;48.034;9.800;2023-04-06T14:04:23;10.50;99.90
20035;DHT22;10178;48.034;9.800;2023-04-06T14:06:49;10.50;99.90
20035;DHT22;10178;48.034;9.800;2023-04-06T14:09:14;10.60;99.90
20035;DHT22;10178;48.034;9.800;2023-04-06T14:11:40;10.80;99.90
20035;DHT22;10178;48.034;9.800;2023-04-06T14:14:06;10.70;99.90
20035;DHT22;10178;48.034;9.800;2023-04-06T14:16:32;10.80;99.90
20035;DHT22;10178;48.034;9.800;2023-04-06T14:18:57;10.80;99.90
20035;DHT22;10178;48.034;9.800;2023-04-06T14:21:24;10.80;99.90
20035;DHT22;10178;48.034;9.800;2023-04-06T14:23:49;10.80;99.90
20035;DHT22;10178;48.034;9.800;2023-04-06T14:26:16;10.70;99.90
20035;DHT22;10178;48.034;9.800;2023-04-06T14:28:42;10.70;99.90
20035;DHT22;10178;48.034;9.800;2023-04-06T14:31:12;10.70;99.90
20035;DHT22;10178;48.034;9.800;2023-04-06T14:33:38;10.70;99.90
20035;DHT22;10178;48.034;9.800;2023-04-06T14:36:05;10.70;99.90
20035;DHT22;10178;48.034;9.800;2023-04-06T14:38:31;10.70;99.90
20035;DHT22;10178;48.034;9.800;2023-04-06T14:40:57;10.90;99.90
20035;DHT22;10178;48.034;9.800;2023-04-06T14:43:23;11.10;99.90
20035;DHT22;10178;48.034;9.800;2023-04-06T14:45:49;11.10;99.90
20035;DHT22;10178;48.034;9.800;2023-04-06T14:48:15;11.50;99.90
20035;DHT22;10178;48.034;9.800;2023-04-06T14:50:52;11.80;99.90
20035;DHT22;10178;48.034;9.800;2023-04-06T14:53:18;11.70;99.50
20035;DHT22;10178;48.034;9.800;2023-04-06T14:55:44;11.20;99.00
20035;DHT22;10178;48.034;9.800;2023-04-06T14:58:10;11.20;99.90
20035;DHT22;10178;48.034;9.800;2023-04-06T15:00:37;10.90;99.90
20035;DHT22;10178;48.034;9.800;2023-04-06T15:03:03;10.80;99.90
20035;DHT22;10178;48.034;9.800;2023-04-06T15:05:29;11.00;99.90
20035;DHT22;10178;48.034;9.800;2023-04-06T15:07:56;11.80;99.90
20035;DHT22;10178;48.034;9.800;2023-04-06T15:10:21;12.60;99.90
20035;DHT22;10178;48.034;9.800;2023-04-06T15:12:47;13.20;99.90
20035;DHT22;10178;48.034;9.800;2023-04-06T15:15:12;13.60;99.90
20035;DHT22;10178;48.034;9.800;2023-04-06T15:17:38;13.80;99.90
20035;DHT22;10178;48.034;9.800;2023-04-06T15:20:05;13.70;99.90
20035;DHT22;10178;48.034;9.800;2023-04-06T15:22:31;12.80;99.90
20035;DHT22;10178;48.034;9.800;2023-04-06T15:24:56;12.80;99.90
20035;DHT22;10178;48.034;9.800;2023-04-06T15:27:22;12.70;99.90
20035;DHT22;10178;48.034;9.800;2023-04-06T15:29:48;11.90;98.70
20035;DHT22;10178;48.034;9.800;2023-04-06T15:32:14;11.40;99.00
20035;DHT22;10178;48.034;9.800;2023-04-06T15:34:39;11.30;99.90
20035;DHT22;10178;48.034;9.800;2023-04-06T15:37:05;11.20;99.90
20035;DHT22;10178;48.034;9.800;2023-04-06T15:39:31;11.20;99.90
20035;DHT22;10178;48.034;9.800;2023-04-06T15:41:58;11.50;99.90
20035;DHT22;10178;48.034;9.800;2023-04-06T15:44:24;12.30;99.90